sensor_id;sensor_type;location;lat;lon;timestamp;P1;durP1;ratioP1;P2;durP2;ratioP2
69226;SDS011;56334;52.398;7.552;2023-01-20T00:01:00;34.45;;;12.85;;
69226;SDS011;56334;52.398;7.552;2023-01-20T00:03:26;44.97;;;15.20;;
69226;SDS011;56334;52.398;7.552;2023-01-20T00:05:53;40.70;;;12.40;;
69226;SDS011;56334;52.398;7.552;2023-01-20T00:08:19;39.10;;;14.07;;
69226;SDS011;56334;52.398;7.552;2023-01-20T00:10:45;37.63;;;13.25;;
69226;SDS011;56334;52.398;7.552;2023-01-20T00:13:11;37.15;;;13.38;;
69226;SDS011;56334;52.398;7.552;2023-01-20T00:15:37;36.63;;;12.27;;
69226;SDS011;56334;52.398;7.552;2023-01-20T00:18:03;37.60;;;13.02;;
69226;SDS011;56334;52.398;7.552;2023-01-20T00:20:29;40.53;;;13.95;;
69226;SDS011;56334;52.398;7.552;2023-01-20T00:22:55;38.83;;;13.32;;
69226;SDS011;56334;52.398;7.552;2023-01-20T00:25:21;37.40;;;13.73;;
69226;SDS011;56334;52.398;7.552;2023-01-20T00:27:47;42.38;;;14.13;;
69226;SDS011;56334;52.398;7.552;2023-01-20T00:30:17;38.95;;;13.13;;
69226;SDS011;56334;52.398;7.552;2023-01-20T00:32:43;42.90;;;15.13;;
69226;SDS011;56334;52.398;7.552;2023-01-20T00:35:12;42.95;;;14.27;;
69226;SDS011;56334;52.398;7.552;2023-01-20T00:37:38;41.40;;;13.45;;
69226;SDS011;56334;52.398;7.552;2023-01-20T00:40:04;34.88;;;13.63;;
69226;SDS011;56334;52.398;7.552;2023-01-20T00:42:31;38.33;;;11.65;;
69226;SDS011;56334;52.398;7.552;2023-01-20T00:44:57;41.03;;;13.20;;
69226;SDS011;56334;52.398;7.552;2023-01-20T00:47:23;39.25;;;12.98;;
69226;SDS011;56334;52.398;7.552;2023-01-20T00:49:49;32.35;;;12.27;;
69226;SDS011;56334;52.398;7.552;2023-01-20T00:52:16;33.10;;;11.65;;
69226;SDS011;56334;52.398;7.552;2023-01-20T00:54:43;37.97;;;11.43;;
69226;SDS011;56334;52.398;7.552;2023-01-20T00:57:09;34.53;;;12.20;;
69226;SDS011;56334;52.398;7.552;2023-01-20T00:59:35;42.15;;;14.55;;
69226;SDS011;56334;52.398;7.552;2023-01-20T01:02:01;36.75;;;12.07;;
69226;SDS011;56334;52.398;7.552;2023-01-20T01:04:27;37.67;;;11.48;;
69226;SDS011;56334;52.398;7.552;2023-01-20T01:06:53;36.47;;;11.98;;
69226;SDS011;56334;52.398;7.552;2023-01-20T01:09:19;32.25;;;10.35;;
69226;SDS011;56334;52.398;7.552;2023-01-20T01:11:49;35.55;;;12.43;;
69226;SDS011;56334;52.398;7.552;2023-01-20T01:14:16;31.90;;;11.02;;
69226;SDS011;56334;52.398;7.552;2023-01-20T01:16:43;39.80;;;14.48;;
69226;SDS011;56334;52.398;7.552;2023-01-20T01:19:09;38.17;;;13.00;;
69226;SDS011;56334;52.398;7.552;2023-01-20T01:21:36;25.92;;;9.15;;
69226;SDS011;56334;52.398;7.552;2023-01-20T01:24:02;41.05;;;12.45;;
69226;SDS011;56334;52.398;7.552;2023-01-20T01:26:29;39.78;;;14.50;;
69226;SDS011;56334;52.398;7.552;2023-01-20T01:28:55;38.90;;;13.68;;
69226;SDS011;56334;52.398;7.552;2023-01-20T01:31:21;36.05;;;13.18;;
69226;SDS011;56334;52.398;7.552;2023-01-20T01:33:47;39.60;;;14.15;;
69226;SDS011;56334;52.398;7.552;2023-01-20T01:36:14;36.47;;;12.20;;
69226;SDS011;56334;52.398;7.552;2023-01-20T01:38:41;35.65;;;12.20;;
69226;SDS011;56334;52.398;7.552;2023-01-20T01:41:08;37.17;;;13.30;;
69226;SDS011;56334;52.398;7.552;2023-01-20T01:43:35;36.45;;;12.43;;
69226;SDS011;56334;52.398;7.552;2023-01-20T01:46:02;34.83;;;11.43;;
69226;SDS011;56334;52.398;7.552;2023-01-20T01:53:30;33.67;;;13.07;;
69226;SDS011;56334;52.398;7.552;2023-01-20T01:55:59;34.60;;;12.68;;
69226;SDS011;56334;52.398;7.552;2023-01-20T01:58:27;20.70;;;7.57;;
69226;SDS011;56334;52.398;7.552;2023-01-20T02:03:20;32.70;;;11.27;;
69226;SDS011;56334;52.398;7.552;2023-01-20T02:05:47;34.50;;;12.73;;
69226;SDS011;56334;52.398;7.552;2023-01-20T02:08:14;34.13;;;12.63;;
69226;SDS011;56334;52.398;7.552;2023-01-20T02:10:40;38.65;;;13.05;;
69226;SDS011;56334;52.398;7.552;2023-01-20T02:13:06;29.63;;;10.00;;
69226;SDS011;56334;52.398;7.552;2023-01-20T02:15:38;34.80;;;11.07;;
69226;SDS011;56334;52.398;7.552;2023-01-20T02:26:17;34.67;;;12.55;;
69226;SDS011;56334;52.398;7.552;2023-01-20T02:31:52;38.33;;;12.32;;
69226;SDS011;56334;52.398;7.552;2023-01-20T02:34:44;35.58;;;11.45;;
69226;SDS011;56334;52.398;7.552;2023-01-20T02:42:08;36.15;;;12.02;;
69226;SDS011;56334;52.398;7.552;2023-01-20T02:44:41;35.85;;;12.55;;
69226;SDS011;56334;52.398;7.552;2023-01-20T02:52:24;37.70;;;12.45;;
69226;SDS011;56334;52.398;7.552;2023-01-20T02:54:52;39.40;;;13.52;;
69226;SDS011;56334;52.398;7.552;2023-01-20T02:57:20;31.45;;;10.77;;
69226;SDS011;56334;52.398;7.552;2023-01-20T02:59:49;38.63;;;12.45;;
69226;SDS011;56334;52.398;7.552;2023-01-20T03:02:21;39.15;;;14.40;;
69226;SDS011;56334;52.398;7.552;2023-01-20T03:04:59;37.50;;;13.00;;
69226;SDS011;56334;52.398;7.552;2023-01-20T03:07:27;38.65;;;12.50;;
69226;SDS011;56334;52.398;7.552;2023-01-20T03:09:54;35.33;;;11.98;;
69226;SDS011;56334;52.398;7.552;2023-01-20T03:12:28;36.85;;;13.07;;
69226;SDS011;56334;52.398;7.552;2023-01-20T03:14:55;35.60;;;12.38;;
69226;SDS011;56334;52.398;7.552;2023-01-20T03:17:22;37.80;;;11.50;;
69226;SDS011;56334;52.398;7.552;2023-01-20T03:19:53;34.78;;;11.77;;
69226;SDS011;56334;52.398;7.552;2023-01-20T03:22:19;33.90;;;11.80;;
69226;SDS011;56334;52.398;7.552;2023-01-20T03:24:45;35.47;;;12.50;;
69226;SDS011;56334;52.398;7.552;2023-01-20T03:27:12;34.65;;;11.10;;
69226;SDS011;56334;52.398;7.552;2023-01-20T03:29:38;33.20;;;10.57;;
69226;SDS011;56334;52.398;7.552;2023-01-20T03:32:04;30.75;;;10.13;;
69226;SDS011;56334;52.398;7.552;2023-01-20T03:34:32;26.48;;;9.18;;
69226;SDS011;56334;52.398;7.552;2023-01-20T03:39:26;33.05;;;10.73;;
69226;SDS011;56334;52.398;7.552;2023-01-20T03:44:23;30.95;;;11.25;;
69226;SDS011;56334;52.398;7.552;2023-01-20T03:46:52;34.65;;;12.35;;
69226;SDS011;56334;52.398;7.552;2023-01-20T03:49:34;29.80;;;10.60;;
69226;SDS011;56334;52.398;7.552;2023-01-20T03:52:03;36.78;;;12.40;;
69226;SDS011;56334;52.398;7.552;2023-01-20T03:54:51;37.42;;;11.13;;
69226;SDS011;56334;52.398;7.552;2023-01-20T03:57:24;35.70;;;11.73;;
69226;SDS011;56334;52.398;7.552;2023-01-20T03:59:52;35.72;;;11.70;;
69226;SDS011;56334;52.398;7.552;2023-01-20T04:02:18;30.95;;;11.00;;
69226;SDS011;56334;52.398;7.552;2023-01-20T04:04:45;34.40;;;11.20;;
69226;SDS011;56334;52.398;7.552;2023-01-20T04:07:16;38.55;;;12.13;;
69226;SDS011;56334;52.398;7.552;2023-01-20T04:09:44;37.83;;;13.23;;
69226;SDS011;56334;52.398;7.552;2023-01-20T04:12:11;38.58;;;12.02;;
69226;SDS011;56334;52.398;7.552;2023-01-20T04:14:37;33.97;;;11.88;;
69226;SDS011;56334;52.398;7.552;2023-01-20T04:17:03;34.50;;;12.25;;
69226;SDS011;56334;52.398;7.552;2023-01-20T04:19:31;36.50;;;12.60;;
69226;SDS011;56334;52.398;7.552;2023-01-20T04:22:31;39.15;;;12.63;;
69226;SDS011;56334;52.398;7.552;2023-01-20T04:24:56;38.00;;;11.88;;
69226;SDS011;56334;52.398;7.552;2023-01-20T04:27:24;39.72;;;12.45;;
69226;SDS011;56334;52.398;7.552;2023-01-20T04:29:50;40.90;;;13.13;;
69226;SDS011;56334;52.398;7.552;2023-01-20T04:32:16;39.08;;;13.18;;
69226;SDS011;56334;52.398;7.552;2023-01-20T04:34:42;37.28;;;12.50;;
69226;SDS011;56334;52.398;7.552;2023-01-20T04:37:08;37.13;;;12.45;;
69226;SDS011;56334;52.398;7.552;2023-01-20T04:39:34;36.55;;;12.05;;
69226;SDS011;56334;52.398;7.552;2023-01-20T04:42:01;38.67;;;12.68;;
69226;SDS011;56334;52.398;7.552;2023-01-20T04:44:27;33.08;;;10.88;;
69226;SDS011;56334;52.398;7.552;2023-01-20T04:46:56;31.38;;;10.77;;
69226;SDS011;56334;52.398;7.552;2023-01-20T04:49:22;30.17;;;10.23;;
69226;SDS011;56334;52.398;7.552;2023-01-20T04:51:48;31.98;;;10.82;;
69226;SDS011;56334;52.398;7.552;2023-01-20T04:54:14;24.35;;;8.50;;
69226;SDS011;56334;52.398;7.552;2023-01-20T04:56:40;25.90;;;8.98;;
69226;SDS011;56334;52.398;7.552;2023-01-20T04:59:08;26.13;;;9.63;;
69226;SDS011;56334;52.398;7.552;2023-01-20T05:01:35;24.00;;;8.77;;
69226;SDS011;56334;52.398;7.552;2023-01-20T05:04:01;22.50;;;7.03;;
69226;SDS011;56334;52.398;7.552;2023-01-20T05:06:27;21.67;;;7.75;;
69226;SDS011;56334;52.398;7.552;2023-01-20T05:08:53;27.08;;;8.75;;
69226;SDS011;56334;52.398;7.552;2023-01-20T05:11:19;21.48;;;7.00;;
69226;SDS011;56334;52.398;7.552;2023-01-20T05:13:45;20.98;;;7.07;;
69226;SDS011;56334;52.398;7.552;2023-01-20T05:16:11;24.45;;;8.18;;
69226;SDS011;56334;52.398;7.552;2023-01-20T05:18:37;16.40;;;6.15;;
69226;SDS011;56334;52.398;7.552;2023-01-20T05:21:03;21.83;;;8.05;;
69226;SDS011;56334;52.398;7.552;2023-01-20T05:23:30;27.25;;;8.18;;
69226;SDS011;56334;52.398;7.552;2023-01-20T05:25:56;24.55;;;8.73;;
69226;SDS011;56334;52.398;7.552;2023-01-20T05:28:22;25.15;;;8.32;;
69226;SDS011;56334;52.398;7.552;2023-01-20T05:30:48;22.63;;;7.07;;
69226;SDS011;56334;52.398;7.552;2023-01-20T05:33:14;21.73;;;7.50;;
69226;SDS011;56334;52.398;7.552;2023-01-20T05:35:40;14.43;;;5.50;;
69226;SDS011;56334;52.398;7.552;2023-01-20T05:38:07;23.58;;;8.13;;
69226;SDS011;56334;52.398;7.552;2023-01-20T05:40:33;24.13;;;7.25;;
69226;SDS011;56334;52.398;7.552;2023-01-20T05:43:00;26.40;;;8.50;;
69226;SDS011;56334;52.398;7.552;2023-01-20T05:45:26;23.27;;;8.55;;
69226;SDS011;56334;52.398;7.552;2023-01-20T05:47:55;23.17;;;7.68;;
69226;SDS011;56334;52.398;7.552;2023-01-20T05:50:22;25.45;;;8.70;;
69226;SDS011;56334;52.398;7.552;2023-01-20T05:52:48;26.02;;;8.35;;
69226;SDS011;56334;52.398;7.552;2023-01-20T05:55:14;24.80;;;8.40;;
69226;SDS011;56334;52.398;7.552;2023-01-20T05:57:40;29.55;;;9.93;;
69226;SDS011;56334;52.398;7.552;2023-01-20T06:00:07;24.58;;;8.52;;
69226;SDS011;56334;52.398;7.552;2023-01-20T06:02:33;27.70;;;9.43;;
69226;SDS011;56334;52.398;7.552;2023-01-20T06:04:59;27.25;;;9.00;;
69226;SDS011;56334;52.398;7.552;2023-01-20T06:07:29;30.95;;;9.45;;
69226;SDS011;56334;52.398;7.552;2023-01-20T06:12:23;23.98;;;7.85;;
69226;SDS011;56334;52.398;7.552;2023-01-20T06:14:50;28.20;;;10.32;;
69226;SDS011;56334;52.398;7.552;2023-01-20T06:17:16;24.88;;;9.40;;
69226;SDS011;56334;52.398;7.552;2023-01-20T06:19:45;31.83;;;10.98;;
69226;SDS011;56334;52.398;7.552;2023-01-20T06:22:12;29.45;;;10.30;;
69226;SDS011;56334;52.398;7.552;2023-01-20T06:24:43;29.17;;;9.35;;
69226;SDS011;56334;52.398;7.552;2023-01-20T06:27:09;31.65;;;9.88;;
69226;SDS011;56334;52.398;7.552;2023-01-20T06:29:35;29.65;;;10.45;;
69226;SDS011;56334;52.398;7.552;2023-01-20T06:32:03;32.65;;;11.02;;
69226;SDS011;56334;52.398;7.552;2023-01-20T06:34:29;27.65;;;10.18;;
69226;SDS011;56334;52.398;7.552;2023-01-20T06:36:57;28.90;;;9.88;;
69226;SDS011;56334;52.398;7.552;2023-01-20T06:39:23;29.60;;;9.15;;
69226;SDS011;56334;52.398;7.552;2023-01-20T06:41:49;27.77;;;10.20;;
69226;SDS011;56334;52.398;7.552;2023-01-20T06:44:15;30.38;;;9.90;;
69226;SDS011;56334;52.398;7.552;2023-01-20T06:46:42;29.33;;;9.75;;
69226;SDS011;56334;52.398;7.552;2023-01-20T06:49:08;27.75;;;9.85;;
69226;SDS011;56334;52.398;7.552;2023-01-20T06:51:34;33.47;;;10.40;;
69226;SDS011;56334;52.398;7.552;2023-01-20T06:54:00;33.17;;;10.90;;
69226;SDS011;56334;52.398;7.552;2023-01-20T06:56:26;30.98;;;11.25;;
69226;SDS011;56334;52.398;7.552;2023-01-20T06:58:52;28.73;;;10.77;;
69226;SDS011;56334;52.398;7.552;2023-01-20T07:01:25;29.92;;;10.15;;
69226;SDS011;56334;52.398;7.552;2023-01-20T07:03:52;31.33;;;11.05;;
69226;SDS011;56334;52.398;7.552;2023-01-20T07:06:28;34.67;;;11.85;;
69226;SDS011;56334;52.398;7.552;2023-01-20T07:08:55;33.72;;;10.38;;
69226;SDS011;56334;52.398;7.552;2023-01-20T07:11:22;33.78;;;11.05;;
69226;SDS011;56334;52.398;7.552;2023-01-20T07:13:48;31.25;;;9.82;;
69226;SDS011;56334;52.398;7.552;2023-01-20T07:16:14;32.00;;;10.35;;
69226;SDS011;56334;52.398;7.552;2023-01-20T07:18:40;31.67;;;10.05;;
69226;SDS011;56334;52.398;7.552;2023-01-20T07:21:08;30.15;;;10.18;;
69226;SDS011;56334;52.398;7.552;2023-01-20T07:23:36;33.78;;;11.20;;
69226;SDS011;56334;52.398;7.552;2023-01-20T07:26:03;33.63;;;11.68;;
69226;SDS011;56334;52.398;7.552;2023-01-20T07:28:30;33.42;;;11.32;;
69226;SDS011;56334;52.398;7.552;2023-01-20T07:31:04;32.38;;;10.40;;
69226;SDS011;56334;52.398;7.552;2023-01-20T07:33:30;31.40;;;10.18;;
69226;SDS011;56334;52.398;7.552;2023-01-20T07:35:56;30.60;;;10.07;;
69226;SDS011;56334;52.398;7.552;2023-01-20T07:38:22;30.60;;;10.57;;
69226;SDS011;56334;52.398;7.552;2023-01-20T07:40:48;33.58;;;10.13;;
69226;SDS011;56334;52.398;7.552;2023-01-20T07:43:15;31.08;;;9.10;;
69226;SDS011;56334;52.398;7.552;2023-01-20T07:45:41;26.83;;;9.68;;
69226;SDS011;56334;52.398;7.552;2023-01-20T07:48:07;30.00;;;9.40;;
69226;SDS011;56334;52.398;7.552;2023-01-20T07:50:34;30.15;;;9.50;;
69226;SDS011;56334;52.398;7.552;2023-01-20T07:53:01;33.22;;;11.02;;
69226;SDS011;56334;52.398;7.552;2023-01-20T07:55:27;27.13;;;9.55;;
69226;SDS011;56334;52.398;7.552;2023-01-20T07:57:54;35.72;;;11.05;;
69226;SDS011;56334;52.398;7.552;2023-01-20T08:00:20;33.63;;;10.88;;
69226;SDS011;56334;52.398;7.552;2023-01-20T08:02:47;31.25;;;11.05;;
69226;SDS011;56334;52.398;7.552;2023-01-20T08:05:13;31.13;;;10.80;;
69226;SDS011;56334;52.398;7.552;2023-01-20T08:07:41;29.95;;;11.13;;
69226;SDS011;56334;52.398;7.552;2023-01-20T08:10:07;33.50;;;11.38;;
69226;SDS011;56334;52.398;7.552;2023-01-20T08:12:33;35.03;;;11.02;;
69226;SDS011;56334;52.398;7.552;2023-01-20T08:14:59;33.10;;;10.93;;
69226;SDS011;56334;52.398;7.552;2023-01-20T08:17:25;26.58;;;10.27;;
69226;SDS011;56334;52.398;7.552;2023-01-20T08:19:51;29.85;;;10.02;;
69226;SDS011;56334;52.398;7.552;2023-01-20T08:22:17;27.00;;;10.00;;
69226;SDS011;56334;52.398;7.552;2023-01-20T08:24:43;25.63;;;9.85;;
69226;SDS011;56334;52.398;7.552;2023-01-20T08:27:09;29.25;;;10.18;;
69226;SDS011;56334;52.398;7.552;2023-01-20T08:29:35;33.90;;;11.30;;
69226;SDS011;56334;52.398;7.552;2023-01-20T08:32:01;30.77;;;9.63;;
69226;SDS011;56334;52.398;7.552;2023-01-20T08:34:27;31.92;;;11.30;;
69226;SDS011;56334;52.398;7.552;2023-01-20T08:36:53;29.70;;;9.15;;
69226;SDS011;56334;52.398;7.552;2023-01-20T08:39:21;31.05;;;10.48;;
69226;SDS011;56334;52.398;7.552;2023-01-20T08:41:48;33.80;;;10.45;;
69226;SDS011;56334;52.398;7.552;2023-01-20T08:44:15;31.10;;;9.65;;
69226;SDS011;56334;52.398;7.552;2023-01-20T08:46:41;21.70;;;7.85;;
69226;SDS011;56334;52.398;7.552;2023-01-20T08:49:09;26.77;;;10.25;;
69226;SDS011;56334;52.398;7.552;2023-01-20T08:51:36;33.25;;;9.52;;
69226;SDS011;56334;52.398;7.552;2023-01-20T08:54:02;29.38;;;10.25;;
69226;SDS011;56334;52.398;7.552;2023-01-20T08:56:28;24.92;;;8.60;;
69226;SDS011;56334;52.398;7.552;2023-01-20T08:58:55;34.78;;;10.45;;
69226;SDS011;56334;52.398;7.552;2023-01-20T09:01:24;28.90;;;8.82;;
69226;SDS011;56334;52.398;7.552;2023-01-20T09:03:50;29.23;;;8.82;;
69226;SDS011;56334;52.398;7.552;2023-01-20T09:06:17;32.95;;;9.57;;
69226;SDS011;56334;52.398;7.552;2023-01-20T09:08:45;24.70;;;7.90;;
69226;SDS011;56334;52.398;7.552;2023-01-20T09:11:13;35.88;;;10.00;;
69226;SDS011;56334;52.398;7.552;2023-01-20T09:13:40;30.25;;;10.07;;
69226;SDS011;56334;52.398;7.552;2023-01-20T09:16:06;32.55;;;10.10;;
69226;SDS011;56334;52.398;7.552;2023-01-20T09:18:33;30.48;;;10.95;;
69226;SDS011;56334;52.398;7.552;2023-01-20T09:20:59;29.33;;;11.05;;
69226;SDS011;56334;52.398;7.552;2023-01-20T09:23:27;34.22;;;11.73;;
69226;SDS011;56334;52.398;7.552;2023-01-20T09:25:53;32.58;;;10.68;;
69226;SDS011;56334;52.398;7.552;2023-01-20T09:28:19;31.17;;;10.10;;
69226;SDS011;56334;52.398;7.552;2023-01-20T09:30:45;30.20;;;9.45;;
69226;SDS011;56334;52.398;7.552;2023-01-20T09:33:12;31.75;;;10.40;;
69226;SDS011;56334;52.398;7.552;2023-01-20T09:35:38;25.35;;;8.80;;
69226;SDS011;56334;52.398;7.552;2023-01-20T09:38:04;31.90;;;10.52;;
69226;SDS011;56334;52.398;7.552;2023-01-20T09:41:14;27.73;;;9.15;;
69226;SDS011;56334;52.398;7.552;2023-01-20T09:49:33;33.38;;;11.02;;
69226;SDS011;56334;52.398;7.552;2023-01-20T09:52:39;29.55;;;9.63;;
69226;SDS011;56334;52.398;7.552;2023-01-20T09:55:39;28.65;;;10.40;;
69226;SDS011;56334;52.398;7.552;2023-01-20T09:58:12;28.73;;;10.15;;
69226;SDS011;56334;52.398;7.552;2023-01-20T10:00:39;30.17;;;9.85;;
69226;SDS011;56334;52.398;7.552;2023-01-20T10:03:12;30.15;;;10.48;;
69226;SDS011;56334;52.398;7.552;2023-01-20T10:05:39;32.47;;;11.80;;
69226;SDS011;56334;52.398;7.552;2023-01-20T10:08:21;30.85;;;9.75;;
69226;SDS011;56334;52.398;7.552;2023-01-20T10:11:02;30.10;;;10.40;;
69226;SDS011;56334;52.398;7.552;2023-01-20T10:13:34;29.10;;;9.73;;
69226;SDS011;56334;52.398;7.552;2023-01-20T10:16:04;28.95;;;9.50;;
69226;SDS011;56334;52.398;7.552;2023-01-20T10:18:36;27.33;;;10.05;;
69226;SDS011;56334;52.398;7.552;2023-01-20T10:23:39;32.92;;;11.43;;
69226;SDS011;56334;52.398;7.552;2023-01-20T10:26:08;32.33;;;10.77;;
69226;SDS011;56334;52.398;7.552;2023-01-20T10:29:08;28.67;;;10.85;;
69226;SDS011;56334;52.398;7.552;2023-01-20T10:31:28;35.85;;;12.15;;
69226;SDS011;56334;52.398;7.552;2023-01-20T10:33:56;34.08;;;11.65;;
69226;SDS011;56334;52.398;7.552;2023-01-20T10:36:24;27.80;;;10.32;;
69226;SDS011;56334;52.398;7.552;2023-01-20T10:43:56;37.22;;;13.13;;
69226;SDS011;56334;52.398;7.552;2023-01-20T10:46:31;31.83;;;11.90;;
69226;SDS011;56334;52.398;7.552;2023-01-20T10:59:08;43.20;;;14.88;;
69226;SDS011;56334;52.398;7.552;2023-01-20T11:01:36;35.67;;;13.77;;
69226;SDS011;56334;52.398;7.552;2023-01-20T11:04:02;37.05;;;12.70;;
69226;SDS011;56334;52.398;7.552;2023-01-20T11:06:28;42.40;;;12.93;;
69226;SDS011;56334;52.398;7.552;2023-01-20T11:08:54;38.45;;;13.38;;
69226;SDS011;56334;52.398;7.552;2023-01-20T11:11:22;38.30;;;13.48;;
69226;SDS011;56334;52.398;7.552;2023-01-20T11:13:49;34.60;;;11.88;;
69226;SDS011;56334;52.398;7.552;2023-01-20T11:16:19;37.80;;;14.10;;
69226;SDS011;56334;52.398;7.552;2023-01-20T11:18:55;38.45;;;12.93;;
69226;SDS011;56334;52.398;7.552;2023-01-20T11:21:23;36.22;;;13.70;;
69226;SDS011;56334;52.398;7.552;2023-01-20T11:23:50;36.90;;;13.75;;
69226;SDS011;56334;52.398;7.552;2023-01-20T11:31:15;40.20;;;13.48;;
69226;SDS011;56334;52.398;7.552;2023-01-20T11:36:31;37.72;;;13.20;;
69226;SDS011;56334;52.398;7.552;2023-01-20T11:38:57;37.58;;;13.63;;
69226;SDS011;56334;52.398;7.552;2023-01-20T11:41:25;43.00;;;14.80;;
69226;SDS011;56334;52.398;7.552;2023-01-20T11:43:53;38.83;;;12.90;;
69226;SDS011;56334;52.398;7.552;2023-01-20T11:46:29;42.45;;;14.80;;
69226;SDS011;56334;52.398;7.552;2023-01-20T11:51:53;34.13;;;12.27;;
69226;SDS011;56334;52.398;7.552;2023-01-20T11:54:21;42.28;;;14.35;;
69226;SDS011;56334;52.398;7.552;2023-01-20T11:56:48;44.63;;;15.13;;
69226;SDS011;56334;52.398;7.552;2023-01-20T12:02:20;43.65;;;15.38;;
69226;SDS011;56334;52.398;7.552;2023-01-20T12:07:20;42.83;;;14.70;;
69226;SDS011;56334;52.398;7.552;2023-01-20T12:09:50;42.33;;;14.30;;
69226;SDS011;56334;52.398;7.552;2023-01-20T12:15:04;42.75;;;14.55;;
69226;SDS011;56334;52.398;7.552;2023-01-20T12:20:15;45.85;;;15.43;;
69226;SDS011;56334;52.398;7.552;2023-01-20T12:25:29;48.22;;;15.50;;
69226;SDS011;56334;52.398;7.552;2023-01-20T12:28:09;39.30;;;13.98;;
69226;SDS011;56334;52.398;7.552;2023-01-20T12:31:11;37.70;;;13.57;;
69226;SDS011;56334;52.398;7.552;2023-01-20T12:33:32;38.10;;;13.40;;
69226;SDS011;56334;52.398;7.552;2023-01-20T12:36:04;45.55;;;15.00;;
69226;SDS011;56334;52.398;7.552;2023-01-20T12:38:37;44.03;;;15.20;;
69226;SDS011;56334;52.398;7.552;2023-01-20T12:41:12;40.28;;;15.10;;
69226;SDS011;56334;52.398;7.552;2023-01-20T12:43:44;42.95;;;14.73;;
69226;SDS011;56334;52.398;7.552;2023-01-20T13:05:14;42.05;;;14.20;;
69226;SDS011;56334;52.398;7.552;2023-01-20T13:10:18;43.55;;;14.77;;
69226;SDS011;56334;52.398;7.552;2023-01-20T13:15:32;46.42;;;17.02;;
69226;SDS011;56334;52.398;7.552;2023-01-20T13:20:26;40.20;;;15.35;;
69226;SDS011;56334;52.398;7.552;2023-01-20T13:22:53;39.88;;;14.73;;
69226;SDS011;56334;52.398;7.552;2023-01-20T13:25:21;38.55;;;15.88;;
69226;SDS011;56334;52.398;7.552;2023-01-20T13:27:48;41.25;;;15.68;;
69226;SDS011;56334;52.398;7.552;2023-01-20T13:33:04;35.22;;;14.75;;
69226;SDS011;56334;52.398;7.552;2023-01-20T13:37:58;41.47;;;16.05;;
69226;SDS011;56334;52.398;7.552;2023-01-20T13:43:01;42.22;;;17.30;;
69226;SDS011;56334;52.398;7.552;2023-01-20T13:45:28;36.20;;;14.63;;
69226;SDS011;56334;52.398;7.552;2023-01-20T13:50:34;37.88;;;13.63;;
69226;SDS011;56334;52.398;7.552;2023-01-20T13:53:14;30.25;;;12.48;;
69226;SDS011;56334;52.398;7.552;2023-01-20T13:55:49;31.90;;;12.38;;
69226;SDS011;56334;52.398;7.552;2023-01-20T14:00:46;34.63;;;12.68;;
69226;SDS011;56334;52.398;7.552;2023-01-20T14:08:39;44.38;;;11.57;;
69226;SDS011;56334;52.398;7.552;2023-01-20T14:11:08;25.63;;;10.57;;
69226;SDS011;56334;52.398;7.552;2023-01-20T14:13:35;29.98;;;10.93;;
69226;SDS011;56334;52.398;7.552;2023-01-20T14:16:01;25.33;;;9.85;;
69226;SDS011;56334;52.398;7.552;2023-01-20T14:18:27;28.85;;;11.73;;
69226;SDS011;56334;52.398;7.552;2023-01-20T14:23:28;25.77;;;9.98;;
69226;SDS011;56334;52.398;7.552;2023-01-20T14:26:38;27.38;;;10.55;;
69226;SDS011;56334;52.398;7.552;2023-01-20T14:28:46;31.83;;;11.43;;
69226;SDS011;56334;52.398;7.552;2023-01-20T14:31:17;33.38;;;12.77;;
69226;SDS011;56334;52.398;7.552;2023-01-20T14:33:52;26.85;;;10.93;;
69226;SDS011;56334;52.398;7.552;2023-01-20T14:36:19;21.80;;;8.88;;
69226;SDS011;56334;52.398;7.552;2023-01-20T14:38:53;25.55;;;10.30;;
69226;SDS011;56334;52.398;7.552;2023-01-20T14:41:28;26.55;;;10.77;;
69226;SDS011;56334;52.398;7.552;2023-01-20T14:43:54;23.45;;;9.95;;
69226;SDS011;56334;52.398;7.552;2023-01-20T14:46:26;27.02;;;10.43;;
69226;SDS011;56334;52.398;7.552;2023-01-20T14:48:53;31.38;;;11.50;;
69226;SDS011;56334;52.398;7.552;2023-01-20T14:51:20;26.67;;;10.85;;
69226;SDS011;56334;52.398;7.552;2023-01-20T14:54:25;33.03;;;12.68;;
69226;SDS011;56334;52.398;7.552;2023-01-20T14:56:32;27.80;;;11.55;;
69226;SDS011;56334;52.398;7.552;2023-01-20T14:58:58;26.83;;;11.38;;
69226;SDS011;56334;52.398;7.552;2023-01-20T15:01:25;24.40;;;10.35;;
69226;SDS011;56334;52.398;7.552;2023-01-20T15:03:58;25.13;;;10.07;;
69226;SDS011;56334;52.398;7.552;2023-01-20T15:06:24;24.55;;;10.32;;
69226;SDS011;56334;52.398;7.552;2023-01-20T15:08:51;25.48;;;10.10;;
69226;SDS011;56334;52.398;7.552;2023-01-20T15:11:18;24.42;;;8.98;;
69226;SDS011;56334;52.398;7.552;2023-01-20T15:16:19;25.35;;;10.80;;
69226;SDS011;56334;52.398;7.552;2023-01-20T15:19:31;23.05;;;8.43;;
69226;SDS011;56334;52.398;7.552;2023-01-20T15:21:44;30.17;;;11.45;;
69226;SDS011;56334;52.398;7.552;2023-01-20T15:26:45;25.88;;;10.80;;
69226;SDS011;56334;52.398;7.552;2023-01-20T15:29:18;24.55;;;9.93;;
69226;SDS011;56334;52.398;7.552;2023-01-20T15:31:45;20.95;;;8.00;;
69226;SDS011;56334;52.398;7.552;2023-01-20T15:34:11;53.72;;;19.38;;
69226;SDS011;56334;52.398;7.552;2023-01-20T15:36:37;37.65;;;15.13;;
69226;SDS011;56334;52.398;7.552;2023-01-20T15:39:25;34.42;;;14.23;;
69226;SDS011;56334;52.398;7.552;2023-01-20T15:41:54;53.38;;;19.45;;
69226;SDS011;56334;52.398;7.552;2023-01-20T15:44:21;75.78;;;25.15;;
69226;SDS011;56334;52.398;7.552;2023-01-20T15:46:48;35.80;;;15.95;;
69226;SDS011;56334;52.398;7.552;2023-01-20T15:49:14;36.95;;;15.57;;
69226;SDS011;56334;52.398;7.552;2023-01-20T15:51:41;29.42;;;12.73;;
69226;SDS011;56334;52.398;7.552;2023-01-20T15:54:07;34.33;;;13.32;;
69226;SDS011;56334;52.398;7.552;2023-01-20T15:56:34;39.17;;;13.40;;
69226;SDS011;56334;52.398;7.552;2023-01-20T15:59:02;31.42;;;12.45;;
69226;SDS011;56334;52.398;7.552;2023-01-20T16:01:28;35.03;;;15.52;;
69226;SDS011;56334;52.398;7.552;2023-01-20T16:03:55;28.67;;;11.85;;
69226;SDS011;56334;52.398;7.552;2023-01-20T16:06:30;29.55;;;12.20;;
69226;SDS011;56334;52.398;7.552;2023-01-20T16:09:01;30.55;;;12.25;;
69226;SDS011;56334;52.398;7.552;2023-01-20T16:11:27;33.22;;;12.40;;
69226;SDS011;56334;52.398;7.552;2023-01-20T16:13:54;39.28;;;14.63;;
69226;SDS011;56334;52.398;7.552;2023-01-20T16:16:21;28.13;;;10.38;;
69226;SDS011;56334;52.398;7.552;2023-01-20T16:18:48;25.70;;;9.52;;
69226;SDS011;56334;52.398;7.552;2023-01-20T16:21:15;24.77;;;11.38;;
69226;SDS011;56334;52.398;7.552;2023-01-20T16:23:41;35.90;;;17.02;;
69226;SDS011;56334;52.398;7.552;2023-01-20T16:26:24;31.05;;;14.20;;
69226;SDS011;56334;52.398;7.552;2023-01-20T16:28:50;33.33;;;13.57;;
69226;SDS011;56334;52.398;7.552;2023-01-20T16:31:17;27.42;;;11.93;;
69226;SDS011;56334;52.398;7.552;2023-01-20T16:33:43;30.02;;;12.65;;
69226;SDS011;56334;52.398;7.552;2023-01-20T16:36:09;26.30;;;11.85;;
69226;SDS011;56334;52.398;7.552;2023-01-20T16:38:36;21.20;;;8.90;;
69226;SDS011;56334;52.398;7.552;2023-01-20T16:41:03;21.02;;;9.23;;
69226;SDS011;56334;52.398;7.552;2023-01-20T16:45:56;37.05;;;14.40;;
69226;SDS011;56334;52.398;7.552;2023-01-20T16:48:23;27.85;;;11.43;;
69226;SDS011;56334;52.398;7.552;2023-01-20T16:50:49;31.30;;;12.30;;